sensor_id;sensor_type;location;lat;lon;timestamp;P1;durP1;ratioP1;P2;durP2;ratioP2
9508;SDS011;4792;50.088;8.122;2023-01-24T00:02:01;12.37;;;8.37;;
9508;SDS011;4792;50.088;8.122;2023-01-24T00:04:30;11.00;;;8.03;;
9508;SDS011;4792;50.088;8.122;2023-01-24T00:06:58;10.47;;;7.40;;
9508;SDS011;4792;50.088;8.122;2023-01-24T00:09:28;11.10;;;7.40;;
9508;SDS011;4792;50.088;8.122;2023-01-24T00:11:56;12.87;;;7.10;;
9508;SDS011;4792;50.088;8.122;2023-01-24T00:14:25;11.30;;;7.60;;
9508;SDS011;4792;50.088;8.122;2023-01-24T00:16:54;10.90;;;8.03;;
9508;SDS011;4792;50.088;8.122;2023-01-24T00:19:22;12.40;;;7.73;;
9508;SDS011;4792;50.088;8.122;2023-01-24T00:21:51;10.40;;;6.80;;
9508;SDS011;4792;50.088;8.122;2023-01-24T00:24:19;10.17;;;7.50;;
9508;SDS011;4792;50.088;8.122;2023-01-24T00:26:49;11.03;;;7.90;;
9508;SDS011;4792;50.088;8.122;2023-01-24T00:29:18;13.03;;;8.80;;
9508;SDS011;4792;50.088;8.122;2023-01-24T00:31:46;10.33;;;7.27;;
9508;SDS011;4792;50.088;8.122;2023-01-24T00:34:14;12.33;;;7.57;;
9508;SDS011;4792;50.088;8.122;2023-01-24T00:36:43;11.27;;;7.47;;
9508;SDS011;4792;50.088;8.122;2023-01-24T00:39:11;11.20;;;7.47;;
9508;SDS011;4792;50.088;8.122;2023-01-24T00:41:40;12.90;;;8.03;;
9508;SDS011;4792;50.088;8.122;2023-01-24T00:44:10;10.93;;;7.60;;
9508;SDS011;4792;50.088;8.122;2023-01-24T00:46:39;10.53;;;6.90;;
9508;SDS011;4792;50.088;8.122;2023-01-24T00:49:07;11.73;;;8.40;;
9508;SDS011;4792;50.088;8.122;2023-01-24T00:51:36;10.03;;;7.40;;
9508;SDS011;4792;50.088;8.122;2023-01-24T00:54:05;10.40;;;7.27;;
9508;SDS011;4792;50.088;8.122;2023-01-24T00:56:33;11.67;;;7.23;;
9508;SDS011;4792;50.088;8.122;2023-01-24T00:59:02;11.83;;;7.03;;
9508;SDS011;4792;50.088;8.122;2023-01-24T01:01:32;11.60;;;8.00;;
9508;SDS011;4792;50.088;8.122;2023-01-24T01:04:00;10.83;;;7.10;;
9508;SDS011;4792;50.088;8.122;2023-01-24T01:06:28;10.23;;;7.30;;
9508;SDS011;4792;50.088;8.122;2023-01-24T01:08:56;10.40;;;7.73;;
9508;SDS011;4792;50.088;8.122;2023-01-24T01:11:24;12.43;;;7.87;;
9508;SDS011;4792;50.088;8.122;2023-01-24T01:13:53;12.60;;;8.07;;
9508;SDS011;4792;50.088;8.122;2023-01-24T01:16:21;10.90;;;7.23;;
9508;SDS011;4792;50.088;8.122;2023-01-24T01:18:54;12.53;;;8.03;;
9508;SDS011;4792;50.088;8.122;2023-01-24T01:21:22;11.60;;;7.50;;
9508;SDS011;4792;50.088;8.122;2023-01-24T01:23:50;11.53;;;7.97;;
9508;SDS011;4792;50.088;8.122;2023-01-24T01:26:19;11.40;;;7.53;;
9508;SDS011;4792;50.088;8.122;2023-01-24T01:28:48;10.50;;;7.13;;
9508;SDS011;4792;50.088;8.122;2023-01-24T01:31:16;13.67;;;8.17;;
9508;SDS011;4792;50.088;8.122;2023-01-24T01:33:45;11.30;;;7.77;;
9508;SDS011;4792;50.088;8.122;2023-01-24T01:36:14;12.00;;;8.47;;
9508;SDS011;4792;50.088;8.122;2023-01-24T01:38:42;13.03;;;8.47;;
9508;SDS011;4792;50.088;8.122;2023-01-24T01:41:11;11.40;;;8.03;;
9508;SDS011;4792;50.088;8.122;2023-01-24T01:43:39;12.50;;;8.07;;
9508;SDS011;4792;50.088;8.122;2023-01-24T01:46:29;11.93;;;8.17;;
9508;SDS011;4792;50.088;8.122;2023-01-24T01:49:11;11.83;;;7.57;;
9508;SDS011;4792;50.088;8.122;2023-01-24T01:51:48;12.67;;;7.70;;
9508;SDS011;4792;50.088;8.122;2023-01-24T01:54:19;11.43;;;7.37;;
9508;SDS011;4792;50.088;8.122;2023-01-24T01:56:52;12.53;;;8.17;;
9508;SDS011;4792;50.088;8.122;2023-01-24T01:59:26;12.43;;;8.00;;
9508;SDS011;4792;50.088;8.122;2023-01-24T02:01:56;12.03;;;7.53;;
9508;SDS011;4792;50.088;8.122;2023-01-24T02:04:27;12.40;;;7.70;;
9508;SDS011;4792;50.088;8.122;2023-01-24T02:07:02;13.27;;;8.30;;
9508;SDS011;4792;50.088;8.122;2023-01-24T02:09:36;12.40;;;8.37;;
9508;SDS011;4792;50.088;8.122;2023-01-24T02:12:07;12.17;;;7.10;;
9508;SDS011;4792;50.088;8.122;2023-01-24T02:14:38;11.97;;;8.07;;
9508;SDS011;4792;50.088;8.122;2023-01-24T02:17:25;12.80;;;8.77;;
9508;SDS011;4792;50.088;8.122;2023-01-24T02:19:57;11.83;;;7.90;;
9508;SDS011;4792;50.088;8.122;2023-01-24T02:22:32;13.73;;;8.10;;
9508;SDS011;4792;50.088;8.122;2023-01-24T02:25:08;12.07;;;7.27;;
9508;SDS011;4792;50.088;8.122;2023-01-24T02:27:45;9.60;;;7.50;;
9508;SDS011;4792;50.088;8.122;2023-01-24T02:30:13;11.13;;;7.77;;
9508;SDS011;4792;50.088;8.122;2023-01-24T02:32:41;10.90;;;7.67;;
9508;SDS011;4792;50.088;8.122;2023-01-24T02:35:21;11.97;;;7.83;;
9508;SDS011;4792;50.088;8.122;2023-01-24T02:37:51;10.23;;;6.93;;
9508;SDS011;4792;50.088;8.122;2023-01-24T02:40:19;11.27;;;7.97;;
9508;SDS011;4792;50.088;8.122;2023-01-24T02:42:49;12.73;;;7.77;;
9508;SDS011;4792;50.088;8.122;2023-01-24T02:45:21;10.30;;;7.30;;
9508;SDS011;4792;50.088;8.122;2023-01-24T02:47:52;12.47;;;7.77;;
9508;SDS011;4792;50.088;8.122;2023-01-24T02:50:22;12.03;;;7.93;;
9508;SDS011;4792;50.088;8.122;2023-01-24T02:52:52;11.37;;;7.63;;
9508;SDS011;4792;50.088;8.122;2023-01-24T02:55:38;10.97;;;7.00;;
9508;SDS011;4792;50.088;8.122;2023-01-24T02:58:28;11.60;;;7.57;;
9508;SDS011;4792;50.088;8.122;2023-01-24T03:00:55;15.07;;;7.50;;
9508;SDS011;4792;50.088;8.122;2023-01-24T03:03:23;12.10;;;7.73;;
9508;SDS011;4792;50.088;8.122;2023-01-24T03:05:51;10.53;;;7.80;;
9508;SDS011;4792;50.088;8.122;2023-01-24T03:08:24;12.57;;;7.40;;
9508;SDS011;4792;50.088;8.122;2023-01-24T03:10:53;11.77;;;8.17;;
9508;SDS011;4792;50.088;8.122;2023-01-24T03:13:22;10.33;;;7.07;;
9508;SDS011;4792;50.088;8.122;2023-01-24T03:16:10;11.80;;;7.47;;
9508;SDS011;4792;50.088;8.122;2023-01-24T03:18:56;11.97;;;7.57;;
9508;SDS011;4792;50.088;8.122;2023-01-24T03:21:42;11.30;;;7.57;;
9508;SDS011;4792;50.088;8.122;2023-01-24T03:24:27;13.00;;;8.27;;
9508;SDS011;4792;50.088;8.122;2023-01-24T03:27:13;13.70;;;8.10;;
9508;SDS011;4792;50.088;8.122;2023-01-24T03:29:59;12.93;;;8.33;;
9508;SDS011;4792;50.088;8.122;2023-01-24T03:32:47;12.53;;;7.90;;
9508;SDS011;4792;50.088;8.122;2023-01-24T03:35:32;11.83;;;8.00;;
9508;SDS011;4792;50.088;8.122;2023-01-24T03:38:01;13.13;;;8.20;;
9508;SDS011;4792;50.088;8.122;2023-01-24T03:40:50;11.30;;;7.63;;
9508;SDS011;4792;50.088;8.122;2023-01-24T03:43:19;12.77;;;8.40;;
9508;SDS011;4792;50.088;8.122;2023-01-24T03:45:51;11.03;;;7.70;;
9508;SDS011;4792;50.088;8.122;2023-01-24T03:48:21;11.57;;;8.27;;
9508;SDS011;4792;50.088;8.122;2023-01-24T03:50:52;12.17;;;7.57;;
9508;SDS011;4792;50.088;8.122;2023-01-24T03:53:38;11.83;;;8.00;;
9508;SDS011;4792;50.088;8.122;2023-01-24T03:56:06;12.00;;;7.93;;
9508;SDS011;4792;50.088;8.122;2023-01-24T03:58:34;14.77;;;8.70;;
9508;SDS011;4792;50.088;8.122;2023-01-24T04:01:02;12.33;;;8.23;;
9508;SDS011;4792;50.088;8.122;2023-01-24T04:03:32;12.27;;;8.20;;
9508;SDS011;4792;50.088;8.122;2023-01-24T04:06:00;13.13;;;8.80;;
9508;SDS011;4792;50.088;8.122;2023-01-24T04:08:28;13.13;;;7.50;;
9508;SDS011;4792;50.088;8.122;2023-01-24T04:10:56;12.57;;;8.43;;
9508;SDS011;4792;50.088;8.122;2023-01-24T04:13:25;14.87;;;8.87;;
9508;SDS011;4792;50.088;8.122;2023-01-24T04:15:53;14.07;;;8.77;;
9508;SDS011;4792;50.088;8.122;2023-01-24T04:18:21;11.90;;;8.17;;
9508;SDS011;4792;50.088;8.122;2023-01-24T04:20:50;13.33;;;8.20;;
9508;SDS011;4792;50.088;8.122;2023-01-24T04:23:18;12.00;;;8.30;;
9508;SDS011;4792;50.088;8.122;2023-01-24T04:25:50;12.07;;;8.60;;
9508;SDS011;4792;50.088;8.122;2023-01-24T04:28:21;11.83;;;8.57;;
9508;SDS011;4792;50.088;8.122;2023-01-24T04:30:55;13.33;;;8.30;;
9508;SDS011;4792;50.088;8.122;2023-01-24T04:33:24;12.63;;;8.43;;
9508;SDS011;4792;50.088;8.122;2023-01-24T04:35:56;12.60;;;8.60;;
9508;SDS011;4792;50.088;8.122;2023-01-24T04:38:25;11.07;;;7.57;;
9508;SDS011;4792;50.088;8.122;2023-01-24T04:40:57;12.27;;;8.77;;
9508;SDS011;4792;50.088;8.122;2023-01-24T04:43:26;15.03;;;9.33;;
9508;SDS011;4792;50.088;8.122;2023-01-24T04:45:55;13.40;;;9.13;;
9508;SDS011;4792;50.088;8.122;2023-01-24T04:48:23;17.13;;;10.20;;
9508;SDS011;4792;50.088;8.122;2023-01-24T04:50:54;14.83;;;9.67;;
9508;SDS011;4792;50.088;8.122;2023-01-24T04:53:28;14.87;;;10.37;;
9508;SDS011;4792;50.088;8.122;2023-01-24T04:55:59;13.57;;;9.73;;
9508;SDS011;4792;50.088;8.122;2023-01-24T04:58:29;16.43;;;10.60;;
9508;SDS011;4792;50.088;8.122;2023-01-24T05:00:59;14.00;;;9.73;;
9508;SDS011;4792;50.088;8.122;2023-01-24T05:03:29;14.37;;;9.40;;
9508;SDS011;4792;50.088;8.122;2023-01-24T05:05:59;16.13;;;10.03;;
9508;SDS011;4792;50.088;8.122;2023-01-24T05:08:27;14.07;;;9.20;;
9508;SDS011;4792;50.088;8.122;2023-01-24T05:10:57;15.80;;;9.90;;
9508;SDS011;4792;50.088;8.122;2023-01-24T05:13:28;17.73;;;10.43;;
9508;SDS011;4792;50.088;8.122;2023-01-24T05:15:56;18.00;;;10.93;;
9508;SDS011;4792;50.088;8.122;2023-01-24T05:18:24;15.77;;;10.10;;
9508;SDS011;4792;50.088;8.122;2023-01-24T05:20:52;17.20;;;10.30;;
9508;SDS011;4792;50.088;8.122;2023-01-24T05:23:21;14.70;;;10.07;;
9508;SDS011;4792;50.088;8.122;2023-01-24T05:25:49;15.50;;;10.10;;
9508;SDS011;4792;50.088;8.122;2023-01-24T05:28:17;15.40;;;9.40;;
9508;SDS011;4792;50.088;8.122;2023-01-24T05:30:45;15.10;;;9.70;;
9508;SDS011;4792;50.088;8.122;2023-01-24T05:33:14;17.33;;;11.23;;
9508;SDS011;4792;50.088;8.122;2023-01-24T05:35:42;14.70;;;9.57;;
9508;SDS011;4792;50.088;8.122;2023-01-24T05:38:11;17.73;;;10.20;;
9508;SDS011;4792;50.088;8.122;2023-01-24T05:40:40;16.43;;;10.43;;
9508;SDS011;4792;50.088;8.122;2023-01-24T05:43:08;15.90;;;10.23;;
9508;SDS011;4792;50.088;8.122;2023-01-24T05:45:36;15.20;;;9.97;;
9508;SDS011;4792;50.088;8.122;2023-01-24T05:48:05;16.77;;;10.27;;
9508;SDS011;4792;50.088;8.122;2023-01-24T05:50:33;18.57;;;11.50;;
9508;SDS011;4792;50.088;8.122;2023-01-24T05:53:01;18.80;;;11.23;;
9508;SDS011;4792;50.088;8.122;2023-01-24T05:55:29;16.93;;;11.23;;
9508;SDS011;4792;50.088;8.122;2023-01-24T05:57:59;17.43;;;11.07;;
9508;SDS011;4792;50.088;8.122;2023-01-24T06:00:27;18.53;;;11.03;;
9508;SDS011;4792;50.088;8.122;2023-01-24T06:03:00;18.37;;;11.67;;
9508;SDS011;4792;50.088;8.122;2023-01-24T06:05:28;21.03;;;12.23;;
9508;SDS011;4792;50.088;8.122;2023-01-24T06:07:57;16.33;;;10.40;;
9508;SDS011;4792;50.088;8.122;2023-01-24T06:10:25;17.30;;;10.83;;
9508;SDS011;4792;50.088;8.122;2023-01-24T06:12:53;17.33;;;11.23;;
9508;SDS011;4792;50.088;8.122;2023-01-24T06:15:22;15.70;;;10.30;;
9508;SDS011;4792;50.088;8.122;2023-01-24T06:17:51;16.00;;;10.07;;
9508;SDS011;4792;50.088;8.122;2023-01-24T06:20:19;13.70;;;9.80;;
9508;SDS011;4792;50.088;8.122;2023-01-24T06:22:48;15.67;;;9.33;;
9508;SDS011;4792;50.088;8.122;2023-01-24T06:25:20;18.37;;;9.80;;
9508;SDS011;4792;50.088;8.122;2023-01-24T06:27:50;15.70;;;10.17;;
9508;SDS011;4792;50.088;8.122;2023-01-24T06:30:19;15.90;;;9.77;;
9508;SDS011;4792;50.088;8.122;2023-01-24T06:32:55;15.67;;;10.13;;
9508;SDS011;4792;50.088;8.122;2023-01-24T06:35:31;17.60;;;10.37;;
9508;SDS011;4792;50.088;8.122;2023-01-24T06:38:13;15.70;;;10.07;;
9508;SDS011;4792;50.088;8.122;2023-01-24T06:40:46;17.90;;;10.23;;
9508;SDS011;4792;50.088;8.122;2023-01-24T06:43:19;14.60;;;9.40;;
9508;SDS011;4792;50.088;8.122;2023-01-24T06:45:48;17.20;;;10.47;;
9508;SDS011;4792;50.088;8.122;2023-01-24T06:48:17;18.47;;;10.53;;
9508;SDS011;4792;50.088;8.122;2023-01-24T06:50:46;14.90;;;9.73;;
9508;SDS011;4792;50.088;8.122;2023-01-24T06:53:14;15.90;;;10.33;;
9508;SDS011;4792;50.088;8.122;2023-01-24T06:55:43;17.60;;;10.93;;
9508;SDS011;4792;50.088;8.122;2023-01-24T06:58:12;16.27;;;10.23;;
9508;SDS011;4792;50.088;8.122;2023-01-24T07:00:40;15.80;;;10.30;;
9508;SDS011;4792;50.088;8.122;2023-01-24T07:03:08;17.93;;;10.73;;
9508;SDS011;4792;50.088;8.122;2023-01-24T07:05:38;17.90;;;10.70;;
9508;SDS011;4792;50.088;8.122;2023-01-24T07:08:06;17.07;;;9.60;;
9508;SDS011;4792;50.088;8.122;2023-01-24T07:10:34;15.73;;;10.60;;
9508;SDS011;4792;50.088;8.122;2023-01-24T07:13:05;15.50;;;10.23;;
9508;SDS011;4792;50.088;8.122;2023-01-24T07:15:33;17.80;;;10.10;;
9508;SDS011;4792;50.088;8.122;2023-01-24T07:18:04;16.20;;;10.80;;
9508;SDS011;4792;50.088;8.122;2023-01-24T07:20:33;16.20;;;9.87;;
9508;SDS011;4792;50.088;8.122;2023-01-24T07:23:03;18.87;;;10.60;;
9508;SDS011;4792;50.088;8.122;2023-01-24T07:25:31;15.27;;;9.60;;
9508;SDS011;4792;50.088;8.122;2023-01-24T07:28:03;17.50;;;10.87;;
9508;SDS011;4792;50.088;8.122;2023-01-24T07:30:32;16.07;;;9.50;;
9508;SDS011;4792;50.088;8.122;2023-01-24T07:33:00;16.77;;;10.70;;
9508;SDS011;4792;50.088;8.122;2023-01-24T07:35:28;16.70;;;10.37;;
9508;SDS011;4792;50.088;8.122;2023-01-24T07:37:56;20.47;;;12.60;;
9508;SDS011;4792;50.088;8.122;2023-01-24T07:40:27;15.87;;;10.40;;
9508;SDS011;4792;50.088;8.122;2023-01-24T07:42:55;18.20;;;10.63;;
9508;SDS011;4792;50.088;8.122;2023-01-24T07:45:26;18.00;;;11.03;;
9508;SDS011;4792;50.088;8.122;2023-01-24T07:47:54;16.20;;;10.17;;
9508;SDS011;4792;50.088;8.122;2023-01-24T07:50:24;17.07;;;10.37;;
9508;SDS011;4792;50.088;8.122;2023-01-24T07:52:52;18.10;;;10.90;;
9508;SDS011;4792;50.088;8.122;2023-01-24T07:55:21;16.73;;;11.17;;
9508;SDS011;4792;50.088;8.122;2023-01-24T07:57:56;17.53;;;10.73;;
9508;SDS011;4792;50.088;8.122;2023-01-24T08:00:25;17.33;;;9.77;;
9508;SDS011;4792;50.088;8.122;2023-01-24T08:02:53;17.33;;;10.57;;
9508;SDS011;4792;50.088;8.122;2023-01-24T08:05:21;17.77;;;10.17;;
9508;SDS011;4792;50.088;8.122;2023-01-24T08:07:49;18.17;;;10.23;;
9508;SDS011;4792;50.088;8.122;2023-01-24T08:10:17;17.00;;;10.17;;
9508;SDS011;4792;50.088;8.122;2023-01-24T08:12:48;17.57;;;10.60;;
9508;SDS011;4792;50.088;8.122;2023-01-24T08:15:18;17.63;;;10.17;;
9508;SDS011;4792;50.088;8.122;2023-01-24T08:17:46;17.93;;;10.97;;
9508;SDS011;4792;50.088;8.122;2023-01-24T08:20:15;21.60;;;12.20;;
9508;SDS011;4792;50.088;8.122;2023-01-24T08:22:43;18.73;;;11.20;;
9508;SDS011;4792;50.088;8.122;2023-01-24T08:25:23;16.17;;;10.13;;
9508;SDS011;4792;50.088;8.122;2023-01-24T08:27:51;16.67;;;11.07;;
9508;SDS011;4792;50.088;8.122;2023-01-24T08:30:21;16.00;;;10.43;;
9508;SDS011;4792;50.088;8.122;2023-01-24T08:32:57;16.67;;;9.77;;
9508;SDS011;4792;50.088;8.122;2023-01-24T08:35:26;21.50;;;11.60;;
9508;SDS011;4792;50.088;8.122;2023-01-24T08:37:54;15.43;;;9.93;;
9508;SDS011;4792;50.088;8.122;2023-01-24T08:40:23;17.20;;;10.13;;
9508;SDS011;4792;50.088;8.122;2023-01-24T08:43:15;16.17;;;10.00;;
9508;SDS011;4792;50.088;8.122;2023-01-24T08:45:45;18.03;;;9.60;;
9508;SDS011;4792;50.088;8.122;2023-01-24T08:48:14;13.73;;;9.20;;
9508;SDS011;4792;50.088;8.122;2023-01-24T08:50:42;15.60;;;10.47;;
9508;SDS011;4792;50.088;8.122;2023-01-24T08:53:11;14.60;;;9.90;;
9508;SDS011;4792;50.088;8.122;2023-01-24T08:55:41;17.10;;;10.20;;
9508;SDS011;4792;50.088;8.122;2023-01-24T08:58:09;16.87;;;9.67;;
9508;SDS011;4792;50.088;8.122;2023-01-24T09:00:37;17.77;;;10.47;;
9508;SDS011;4792;50.088;8.122;2023-01-24T09:03:07;16.67;;;9.23;;
9508;SDS011;4792;50.088;8.122;2023-01-24T09:05:36;15.60;;;9.83;;
9508;SDS011;4792;50.088;8.122;2023-01-24T09:08:05;14.83;;;9.03;;
9508;SDS011;4792;50.088;8.122;2023-01-24T09:10:33;13.60;;;8.90;;
9508;SDS011;4792;50.088;8.122;2023-01-24T09:13:02;15.27;;;9.20;;
9508;SDS011;4792;50.088;8.122;2023-01-24T09:15:31;12.67;;;8.67;;
9508;SDS011;4792;50.088;8.122;2023-01-24T09:18:00;14.97;;;9.50;;
9508;SDS011;4792;50.088;8.122;2023-01-24T09:20:30;16.23;;;10.57;;
9508;SDS011;4792;50.088;8.122;2023-01-24T09:23:07;14.40;;;9.57;;
9508;SDS011;4792;50.088;8.122;2023-01-24T09:25:36;12.63;;;9.07;;
9508;SDS011;4792;50.088;8.122;2023-01-24T09:28:04;12.47;;;8.40;;
9508;SDS011;4792;50.088;8.122;2023-01-24T09:30:36;13.97;;;8.27;;
9508;SDS011;4792;50.088;8.122;2023-01-24T09:33:04;14.43;;;8.43;;
9508;SDS011;4792;50.088;8.122;2023-01-24T09:35:34;14.23;;;8.80;;
9508;SDS011;4792;50.088;8.122;2023-01-24T09:38:02;14.63;;;8.87;;
9508;SDS011;4792;50.088;8.122;2023-01-24T09:40:34;12.40;;;8.03;;
9508;SDS011;4792;50.088;8.122;2023-01-24T09:43:12;12.27;;;8.50;;
9508;SDS011;4792;50.088;8.122;2023-01-24T09:45:45;11.73;;;8.20;;
9508;SDS011;4792;50.088;8.122;2023-01-24T09:48:23;11.07;;;8.30;;
9508;SDS011;4792;50.088;8.122;2023-01-24T09:50:54;15.20;;;9.70;;
9508;SDS011;4792;50.088;8.122;2023-01-24T09:53:28;45.83;;;23.27;;
9508;SDS011;4792;50.088;8.122;2023-01-24T09:55:59;22.70;;;11.73;;
9508;SDS011;4792;50.088;8.122;2023-01-24T09:58:31;11.60;;;8.57;;
9508;SDS011;4792;50.088;8.122;2023-01-24T10:01:03;12.57;;;8.60;;
9508;SDS011;4792;50.088;8.122;2023-01-24T10:03:35;13.47;;;9.20;;
9508;SDS011;4792;50.088;8.122;2023-01-24T10:06:08;14.83;;;9.70;;
9508;SDS011;4792;50.088;8.122;2023-01-24T10:08:44;14.53;;;9.33;;
9508;SDS011;4792;50.088;8.122;2023-01-24T10:11:20;13.43;;;9.13;;
9508;SDS011;4792;50.088;8.122;2023-01-24T10:13:57;13.73;;;8.87;;
9508;SDS011;4792;50.088;8.122;2023-01-24T10:19:48;13.50;;;8.57;;
9508;SDS011;4792;50.088;8.122;2023-01-24T10:22:56;13.50;;;9.33;;
9508;SDS011;4792;50.088;8.122;2023-01-24T10:25:31;12.93;;;8.60;;
9508;SDS011;4792;50.088;8.122;2023-01-24T10:28:15;13.70;;;8.57;;
9508;SDS011;4792;50.088;8.122;2023-01-24T10:30:52;15.73;;;9.37;;
9508;SDS011;4792;50.088;8.122;2023-01-24T10:33:26;14.13;;;9.00;;
9508;SDS011;4792;50.088;8.122;2023-01-24T10:35:59;13.40;;;8.70;;
9508;SDS011;4792;50.088;8.122;2023-01-24T10:38:33;12.33;;;8.70;;
9508;SDS011;4792;50.088;8.122;2023-01-24T10:41:09;13.77;;;9.53;;
9508;SDS011;4792;50.088;8.122;2023-01-24T10:43:45;13.73;;;9.20;;
9508;SDS011;4792;50.088;8.122;2023-01-24T10:46:26;15.23;;;10.07;;
9508;SDS011;4792;50.088;8.122;2023-01-24T10:49:03;13.20;;;8.43;;
9508;SDS011;4792;50.088;8.122;2023-01-24T10:51:38;14.70;;;9.80;;
9508;SDS011;4792;50.088;8.122;2023-01-24T10:54:16;12.63;;;9.27;;
9508;SDS011;4792;50.088;8.122;2023-01-24T10:56:47;15.70;;;8.97;;
9508;SDS011;4792;50.088;8.122;2023-01-24T10:59:15;13.30;;;8.70;;
9508;SDS011;4792;50.088;8.122;2023-01-24T11:01:44;14.37;;;9.43;;
9508;SDS011;4792;50.088;8.122;2023-01-24T11:04:17;14.70;;;9.67;;
9508;SDS011;4792;50.088;8.122;2023-01-24T11:06:48;14.10;;;9.00;;
9508;SDS011;4792;50.088;8.122;2023-01-24T11:09:19;13.80;;;9.30;;
9508;SDS011;4792;50.088;8.122;2023-01-24T11:11:50;14.23;;;9.93;;
9508;SDS011;4792;50.088;8.122;2023-01-24T11:14:20;12.87;;;8.83;;
9508;SDS011;4792;50.088;8.122;2023-01-24T11:16:51;14.10;;;9.23;;
9508;SDS011;4792;50.088;8.122;2023-01-24T11:19:24;13.20;;;8.77;;
9508;SDS011;4792;50.088;8.122;2023-01-24T11:21:55;15.53;;;9.27;;
9508;SDS011;4792;50.088;8.122;2023-01-24T11:24:26;14.30;;;9.73;;
9508;SDS011;4792;50.088;8.122;2023-01-24T11:26:56;12.83;;;9.00;;
9508;SDS011;4792;50.088;8.122;2023-01-24T11:29:28;16.30;;;9.60;;
9508;SDS011;4792;50.088;8.122;2023-01-24T11:32:00;13.73;;;9.00;;
9508;SDS011;4792;50.088;8.122;2023-01-24T11:34:46;13.00;;;9.33;;
9508;SDS011;4792;50.088;8.122;2023-01-24T11:37:29;14.40;;;9.43;;
9508;SDS011;4792;50.088;8.122;2023-01-24T11:40:21;12.93;;;9.07;;
9508;SDS011;4792;50.088;8.122;2023-01-24T11:43:04;13.70;;;9.60;;
9508;SDS011;4792;50.088;8.122;2023-01-24T11:45:54;14.40;;;9.87;;
9508;SDS011;4792;50.088;8.122;2023-01-24T11:48:33;14.27;;;9.03;;
9508;SDS011;4792;50.088;8.122;2023-01-24T11:51:09;14.10;;;9.37;;
9508;SDS011;4792;50.088;8.122;2023-01-24T11:53:49;17.47;;;10.27;;
9508;SDS011;4792;50.088;8.122;2023-01-24T11:56:32;17.33;;;9.90;;
9508;SDS011;4792;50.088;8.122;2023-01-24T11:59:16;14.73;;;9.03;;
9508;SDS011;4792;50.088;8.122;2023-01-24T12:01:56;13.87;;;9.47;;
9508;SDS011;4792;50.088;8.122;2023-01-24T12:04:45;14.40;;;9.63;;
9508;SDS011;4792;50.088;8.122;2023-01-24T12:07:43;15.77;;;9.60;;
9508;SDS011;4792;50.088;8.122;2023-01-24T12:10:22;18.70;;;10.43;;
9508;SDS011;4792;50.088;8.122;2023-01-24T12:13:01;14.30;;;9.40;;
9508;SDS011;4792;50.088;8.122;2023-01-24T12:15:36;15.13;;;10.60;;
9508;SDS011;4792;50.088;8.122;2023-01-24T12:21:12;17.07;;;9.73;;
9508;SDS011;4792;50.088;8.122;2023-01-24T12:23:42;15.37;;;10.00;;
9508;SDS011;4792;50.088;8.122;2023-01-24T12:26:17;14.33;;;9.00;;
9508;SDS011;4792;50.088;8.122;2023-01-24T12:28:55;14.90;;;9.70;;
9508;SDS011;4792;50.088;8.122;2023-01-24T12:31:31;14.43;;;9.37;;
9508;SDS011;4792;50.088;8.122;2023-01-24T12:34:09;15.47;;;9.20;;
9508;SDS011;4792;50.088;8.122;2023-01-24T12:36:47;11.63;;;8.77;;
9508;SDS011;4792;50.088;8.122;2023-01-24T12:39:23;14.07;;;9.67;;
9508;SDS011;4792;50.088;8.122;2023-01-24T12:41:58;13.87;;;9.20;;
9508;SDS011;4792;50.088;8.122;2023-01-24T12:44:41;17.60;;;9.87;;
9508;SDS011;4792;50.088;8.122;2023-01-24T12:47:16;14.50;;;9.23;;
9508;SDS011;4792;50.088;8.122;2023-01-24T12:49:55;13.53;;;9.43;;
9508;SDS011;4792;50.088;8.122;2023-01-24T12:52:38;14.37;;;9.23;;
9508;SDS011;4792;50.088;8.122;2023-01-24T12:55:09;13.70;;;9.00;;
9508;SDS011;4792;50.088;8.122;2023-01-24T12:57:42;14.97;;;9.57;;
9508;SDS011;4792;50.088;8.122;2023-01-24T13:00:16;15.37;;;10.10;;
9508;SDS011;4792;50.088;8.122;2023-01-24T13:06:05;13.87;;;9.27;;
9508;SDS011;4792;50.088;8.122;2023-01-24T13:08:44;14.23;;;9.40;;
9508;SDS011;4792;50.088;8.122;2023-01-24T13:11:19;15.50;;;10.13;;
9508;SDS011;4792;50.088;8.122;2023-01-24T13:13:55;13.17;;;8.90;;
9508;SDS011;4792;50.088;8.122;2023-01-24T13:16:36;16.03;;;9.30;;
9508;SDS011;4792;50.088;8.122;2023-01-24T13:19:40;12.20;;;8.53;;
9508;SDS011;4792;50.088;8.122;2023-01-24T13:22:24;15.63;;;9.47;;
9508;SDS011;4792;50.088;8.122;2023-01-24T13:25:11;12.77;;;8.37;;
9508;SDS011;4792;50.088;8.122;2023-01-24T13:27:53;14.53;;;8.77;;
9508;SDS011;4792;50.088;8.122;2023-01-24T13:30:29;14.57;;;9.93;;
9508;SDS011;4792;50.088;8.122;2023-01-24T13:33:03;13.57;;;9.10;;
9508;SDS011;4792;50.088;8.122;2023-01-24T13:35:32;12.63;;;9.03;;
9508;SDS011;4792;50.088;8.122;2023-01-24T13:38:02;12.30;;;8.87;;
9508;SDS011;4792;50.088;8.122;2023-01-24T13:40:33;14.67;;;9.20;;
9508;SDS011;4792;50.088;8.122;2023-01-24T13:43:02;14.63;;;9.67;;
9508;SDS011;4792;50.088;8.122;2023-01-24T13:45:51;13.97;;;9.20;;
9508;SDS011;4792;50.088;8.122;2023-01-24T13:51:27;14.70;;;9.80;;
9508;SDS011;4792;50.088;8.122;2023-01-24T13:54:02;14.07;;;9.33;;
9508;SDS011;4792;50.088;8.122;2023-01-24T13:56:32;13.90;;;9.33;;
9508;SDS011;4792;50.088;8.122;2023-01-24T13:59:38;13.00;;;8.97;;
9508;SDS011;4792;50.088;8.122;2023-01-24T14:02:22;17.07;;;9.70;;
9508;SDS011;4792;50.088;8.122;2023-01-24T14:04:56;13.30;;;9.23;;
9508;SDS011;4792;50.088;8.122;2023-01-24T14:07:26;14.13;;;9.10;;
9508;SDS011;4792;50.088;8.122;2023-01-24T14:09:58;13.63;;;8.93;;
9508;SDS011;4792;50.088;8.122;2023-01-24T14:12:28;14.13;;;9.27;;
9508;SDS011;4792;50.088;8.122;2023-01-24T14:15:00;15.53;;;9.63;;
9508;SDS011;4792;50.088;8.122;2023-01-24T14:17:45;13.23;;;8.93;;
9508;SDS011;4792;50.088;8.122;2023-01-24T14:20:19;12.27;;;8.80;;
9508;SDS011;4792;50.088;8.122;2023-01-24T14:22:50;14.80;;;10.27;;
9508;SDS011;4792;50.088;8.122;2023-01-24T14:28:21;14.87;;;10.70;;
9508;SDS011;4792;50.088;8.122;2023-01-24T14:30:58;17.97;;;11.97;;
9508;SDS011;4792;50.088;8.122;2023-01-24T14:33:34;15.30;;;10.70;;
9508;SDS011;4792;50.088;8.122;2023-01-24T14:36:15;14.07;;;10.03;;
9508;SDS011;4792;50.088;8.122;2023-01-24T14:41:53;15.53;;;9.87;;
9508;SDS011;4792;50.088;8.122;2023-01-24T14:44:25;14.67;;;10.23;;
9508;SDS011;4792;50.088;8.122;2023-01-24T14:46:55;16.87;;;11.00;;
9508;SDS011;4792;50.088;8.122;2023-01-24T14:49:26;15.53;;;11.00;;
9508;SDS011;4792;50.088;8.122;2023-01-24T14:52:01;15.57;;;10.27;;
9508;SDS011;4792;50.088;8.122;2023-01-24T14:54:47;15.17;;;10.43;;
9508;SDS011;4792;50.088;8.122;2023-01-24T14:57:20;15.90;;;10.10;;
9508;SDS011;4792;50.088;8.122;2023-01-24T15:00:00;14.07;;;10.43;;
9508;SDS011;4792;50.088;8.122;2023-01-24T15:02:30;16.03;;;10.77;;
9508;SDS011;4792;50.088;8.122;2023-01-24T15:04:59;14.70;;;10.57;;
9508;SDS011;4792;50.088;8.122;2023-01-24T15:07:29;15.73;;;10.00;;
9508;SDS011;4792;50.088;8.122;2023-01-24T15:09:57;15.20;;;10.63;;
9508;SDS011;4792;50.088;8.122;2023-01-24T15:12:28;13.70;;;9.53;;
9508;SDS011;4792;50.088;8.122;2023-01-24T15:14:59;17.07;;;9.97;;
9508;SDS011;4792;50.088;8.122;2023-01-24T15:17:31;13.70;;;9.30;;
9508;SDS011;4792;50.088;8.122;2023-01-24T15:20:05;15.73;;;10.80;;
9508;SDS011;4792;50.088;8.122;2023-01-24T15:22:38;15.83;;;11.67;;
9508;SDS011;4792;50.088;8.122;2023-01-24T15:25:14;21.53;;;14.13;;
9508;SDS011;4792;50.088;8.122;2023-01-24T15:27:46;19.60;;;13.60;;
9508;SDS011;4792;50.088;8.122;2023-01-24T15:30:18;17.73;;;11.00;;
9508;SDS011;4792;50.088;8.122;2023-01-24T15:32:48;13.47;;;9.20;;
9508;SDS011;4792;50.088;8.122;2023-01-24T15:35:26;11.83;;;8.50;;
9508;SDS011;4792;50.088;8.122;2023-01-24T15:40:55;14.97;;;10.80;;
9508;SDS011;4792;50.088;8.122;2023-01-24T15:43:31;12.87;;;9.33;;
9508;SDS011;4792;50.088;8.122;2023-01-24T15:49:23;14.73;;;9.10;;
9508;SDS011;4792;50.088;8.122;2023-01-24T15:52:15;15.37;;;9.30;;
9508;SDS011;4792;50.088;8.122;2023-01-24T15:54:50;12.37;;;8.47;;
9508;SDS011;4792;50.088;8.122;2023-01-24T15:57:24;13.43;;;9.17;;